Startpagina
METAR-TAF:

METAR-TAF

Vliegvelden :

Aéroport Valence-Chabeuil

Valence, Frankrijk

breedte: 44-54-58N, lengte: 4-58-06E, hoogte: 160 m

Actueel weer

Dit bericht is 10 uur en het 1 minuten geleden gemaakt, om 18:00 UTC
Wind 9 kt uit het zuiden
Temperatuur 23°C
Vochtigheid 53%
Druk 1015 hPa
Zicht 10 km of meer
geen wolken onder 1500 m en geen cumulonimbus

METAR: LFLU 011800Z AUTO 19009KT CAVOK 23/13 Q1015

Tijdstip: 06:01 (04:01 UTC)


TAF: ontbreekt

Waarnemingen en weersverwachtingen van meer dan 4000 vliegvelden (METAR en TAF).

De beschikbare stations zijn de gele en rode punten op de kaart.

Ga met uw muis naar het station om de naam te zien.

Klik dan om waarnemingen en weersverwachtingen te zien.

kaart wijzigen: klik op de groene knoppen met een zwart kruis om in te zoomen, op de groene knop met een streepje om uit te zoomen of op de groene pijlen voor aangrenzende kaarten.


METAR-TAF: